createdAt,value
2023-03-16T00:02:44.417Z,101362.16
2023-03-16T00:07:36.115Z,101367.31
2023-03-16T00:12:27.857Z,101288.72
2023-03-16T00:17:20.785Z,101390.75
2023-03-16T00:22:14.785Z,101360.78
2023-03-16T00:27:06.454Z,101365.28
2023-03-16T00:31:58.203Z,101229.34
2023-03-16T00:36:49.981Z,101363.38
2023-03-16T00:41:42.924Z,101114.50
2023-03-16T00:46:34.729Z,101371.97
2023-03-16T00:51:26.529Z,101373.34
2023-03-16T00:56:18.444Z,101235.25
2023-03-16T01:01:14.185Z,101372.25
2023-03-16T01:06:11.846Z,100913.84
2023-03-16T01:11:11.940Z,101366.09
2023-03-16T01:16:04.144Z,101330.41
2023-03-16T01:20:55.965Z,101244.66
2023-03-16T01:25:53.058Z,101115.81
2023-03-16T01:30:44.773Z,101248.44
2023-03-16T01:35:36.535Z,101325.31
2023-03-16T01:40:28.512Z,101235.75
2023-03-16T01:45:58.126Z,101318.63
2023-03-16T01:50:52.513Z,101250.84
2023-03-16T01:55:44.659Z,101192.66
2023-03-16T02:00:36.682Z,101284.22
2023-03-16T02:05:58.731Z,101284.72
2023-03-16T02:10:54.704Z,101202.56
2023-03-16T02:15:47.900Z,101283.22
2023-03-16T02:21:01.920Z,101184.34
2023-03-16T02:26:12.459Z,101289.22
2023-03-16T02:31:06.173Z,101210.97
2023-03-16T02:35:58.477Z,101144.63
2023-03-16T02:41:20.811Z,101255.03
2023-03-16T02:46:21.647Z,101260.50
2023-03-16T02:51:13.577Z,101080.97
2023-03-16T02:56:05.687Z,101169.88
2023-03-16T03:00:59.906Z,101178.56
2023-03-16T03:05:51.597Z,101158.03
2023-03-16T03:10:43.280Z,101240.28
2023-03-16T03:15:35.795Z,101190.91
2023-03-16T03:20:33.960Z,101135.28
2023-03-16T03:25:25.821Z,101233.47
2023-03-16T03:30:21.614Z,101223.66
2023-03-16T03:35:14.832Z,101083.09
2023-03-16T03:40:10.323Z,101041.53
2023-03-16T03:45:02.229Z,101170.41
2023-03-16T03:49:53.951Z,100747.69
2023-03-16T03:54:45.984Z,101222.63
2023-03-16T03:59:43.711Z,100980.53
2023-03-16T04:05:00.969Z,101062.59
2023-03-16T04:09:54.418Z,101078.34
2023-03-16T04:14:54.490Z,101218.66
2023-03-16T04:19:48.137Z,101208.44
2023-03-16T04:24:44.871Z,101002.13
2023-03-16T04:29:39.049Z,101201.34
2023-03-16T04:34:31.706Z,101116.63
2023-03-16T04:39:26.508Z,101064.13
2023-03-16T04:44:19.729Z,101131.38
2023-03-16T04:49:12.055Z,101179.66
2023-03-16T04:54:07.686Z,101181.31
2023-03-16T04:59:02.778Z,101144.84
2023-03-16T05:04:00.167Z,101108.13
2023-03-16T05:08:54.532Z,101075.53
2023-03-16T05:13:46.429Z,101079.06
2023-03-16T05:18:38.172Z,101117.03
2023-03-16T05:23:31.584Z,101072.94
2023-03-16T05:28:27.487Z,100996.03
2023-03-16T05:33:26.279Z,101158.50
2023-03-16T05:38:27.552Z,100827.63
2023-03-16T05:43:21.715Z,101105.81
2023-03-16T05:48:16.135Z,101178.06
2023-03-16T05:53:11.538Z,101097.41
2023-03-16T05:58:05.980Z,100493.38
2023-03-16T06:03:00.095Z,101094.41
2023-03-16T06:07:55.574Z,101177.19
2023-03-16T06:12:49.921Z,101117.53
2023-03-16T06:17:43.529Z,101165.03
2023-03-16T06:22:35.369Z,101177.41
2023-03-16T06:27:27.303Z,101047.84
2023-03-16T06:32:42.182Z,101022.03
2023-03-16T06:37:34.235Z,101010.69
2023-03-16T06:42:31.325Z,101163.53
2023-03-16T06:47:23.099Z,101098.56
2023-03-16T06:52:15.001Z,101119.88
2023-03-16T06:57:07.373Z,101086.03
2023-03-16T07:01:59.068Z,101193.38
2023-03-16T07:06:51.437Z,100616.16
2023-03-16T07:11:43.438Z,101018.25
2023-03-16T07:16:35.174Z,101183.81
2023-03-16T07:21:29.342Z,101194.19
2023-03-16T07:26:21.535Z,100992.34
2023-03-16T07:31:18.381Z,101080.06
2023-03-16T07:36:11.664Z,101193.66
2023-03-16T07:41:09.960Z,100985.56
2023-03-16T07:46:04.221Z,101184.47
2023-03-16T07:50:56.154Z,101188.69
2023-03-16T07:55:49.391Z,101184.19
2023-03-16T08:00:42.764Z,101185.53
2023-03-16T08:05:34.594Z,101100.91
2023-03-16T08:10:35.887Z,101175.13
2023-03-16T08:15:34.986Z,101039.38
2023-03-16T08:20:34.331Z,101138.38
2023-03-16T08:25:26.746Z,101089.09
2023-03-16T08:30:27.323Z,101050.84
2023-03-16T08:35:36.278Z,101074.38
2023-03-16T08:40:29.667Z,101088.66
2023-03-16T08:45:24.325Z,101131.25
2023-03-16T08:50:16.329Z,101003.81
2023-03-16T08:55:11.001Z,100947.41
2023-03-16T09:00:08.815Z,101097.16
2023-03-16T09:05:00.391Z,101008.78
2023-03-16T09:09:52.731Z,100991.41
2023-03-16T09:14:45.998Z,101031.16
2023-03-16T09:19:56.290Z,101081.91
2023-03-16T09:24:49.680Z,101159.47
2023-03-16T09:29:42.941Z,100955.84
2023-03-16T09:34:34.763Z,100871.44
2023-03-16T09:39:26.370Z,101087.44
2023-03-16T09:44:29.288Z,101025.78
2023-03-16T09:49:26.020Z,101121.31
2023-03-16T09:54:42.303Z,101014.97
2023-03-16T09:59:34.844Z,101090.84
2023-03-16T10:04:41.488Z,101006.88
2023-03-16T10:09:53.450Z,101046.50
2023-03-16T10:14:57.718Z,101104.75
2023-03-16T10:20:00.079Z,101107.41
2023-03-16T10:24:57.968Z,101110.13
2023-03-16T10:29:49.904Z,100993.59
2023-03-16T10:34:45.528Z,101100.81
2023-03-16T10:39:42.927Z,101087.81
2023-03-16T10:44:40.319Z,101078.16
2023-03-16T10:49:40.380Z,101079.78
2023-03-16T10:54:39.170Z,101017.16
2023-03-16T10:59:34.418Z,101022.69
2023-03-16T11:04:31.569Z,100988.84
2023-03-16T11:09:33.159Z,100998.16
2023-03-16T11:14:29.055Z,101053.25
2023-03-16T11:19:26.049Z,100869.44
2023-03-16T11:24:34.722Z,100874.63
2023-03-16T11:29:52.748Z,101019.94
2023-03-16T11:34:45.013Z,100871.88
2023-03-16T11:39:42.761Z,100967.50
2023-03-16T11:44:42.110Z,101003.34
2023-03-16T11:49:44.458Z,100995.47
2023-03-16T11:54:42.386Z,100997.13
2023-03-16T12:00:01.497Z,100817.31
2023-03-16T12:05:13.494Z,100801.78
2023-03-16T12:10:24.100Z,100966.78
2023-03-16T12:15:38.452Z,100866.38
2023-03-16T12:20:41.829Z,100802.63
2023-03-16T12:25:38.160Z,100928.66
2023-03-16T12:30:50.994Z,100932.69
2023-03-16T12:36:10.651Z,100866.50
2023-03-16T12:41:39.677Z,100914.84
2023-03-16T12:46:37.368Z,100648.00
2023-03-16T12:51:37.260Z,100879.19
2023-03-16T12:56:44.173Z,100809.38
2023-03-16T13:01:43.743Z,100839.31
2023-03-16T13:06:36.719Z,100861.25
2023-03-16T13:11:28.687Z,100851.00
2023-03-16T13:16:32.324Z,100797.47
2023-03-16T13:21:39.866Z,100706.91
2023-03-16T13:26:43.788Z,100803.81
2023-03-16T13:31:39.036Z,100787.53
2023-03-16T13:36:32.130Z,100723.09
2023-03-16T13:41:24.837Z,100734.78
2023-03-16T13:46:22.402Z,100807.69
2023-03-16T13:51:20.921Z,100683.66
2023-03-16T13:56:19.320Z,100789.66
2023-03-16T14:01:20.648Z,100622.34
2023-03-16T14:06:30.481Z,100644.09
2023-03-16T14:11:22.480Z,100691.16
2023-03-16T14:16:19.892Z,100758.88
2023-03-16T14:21:22.942Z,100749.91
2023-03-16T14:26:16.749Z,100676.97
2023-03-16T14:31:13.055Z,100731.47
2023-03-16T14:36:19.661Z,100724.47
2023-03-16T14:41:21.501Z,100704.75
2023-03-16T14:46:19.037Z,100713.09
2023-03-16T14:51:14.366Z,100493.56
2023-03-16T14:56:13.516Z,100696.81
2023-03-16T15:01:06.373Z,100693.66
2023-03-16T15:05:58.075Z,100627.94
2023-03-16T15:10:50.865Z,100705.91
2023-03-16T15:15:43.020Z,100482.94
2023-03-16T15:20:41.379Z,100569.09
2023-03-16T15:25:46.696Z,100682.78
2023-03-16T15:30:39.165Z,100684.81
2023-03-16T15:35:30.949Z,100669.78
2023-03-16T15:40:26.232Z,100527.09
2023-03-16T15:45:21.346Z,100598.78
2023-03-16T15:50:15.648Z,100681.72
2023-03-16T15:55:22.603Z,100578.69
2023-03-16T16:00:27.239Z,100457.25
2023-03-16T16:05:19.059Z,100407.06
2023-03-16T16:10:14.282Z,100643.56
2023-03-16T16:15:29.677Z,100640.44
2023-03-16T16:20:23.262Z,100636.63
2023-03-16T16:25:15.643Z,100572.56
2023-03-16T16:30:27.505Z,100555.66
2023-03-16T16:35:22.096Z,100630.03
2023-03-16T16:40:17.299Z,100629.91
2023-03-16T16:45:27.651Z,100508.13
2023-03-16T16:50:23.168Z,100619.13
2023-03-16T16:55:15.152Z,100632.06
2023-03-16T17:00:17.470Z,100578.28
2023-03-16T17:05:21.958Z,100583.47
2023-03-16T17:10:17.411Z,100636.91
2023-03-16T17:15:29.836Z,100619.78
2023-03-16T17:20:25.480Z,100629.88
2023-03-16T17:25:17.381Z,100586.06
2023-03-16T17:30:25.439Z,100634.41
2023-03-16T17:35:18.047Z,100546.88
2023-03-16T17:40:21.511Z,100632.03
2023-03-16T17:45:19.035Z,100559.59
2023-03-16T17:50:31.482Z,100642.53
2023-03-16T17:55:24.788Z,100648.00
2023-03-16T18:00:26.058Z,100645.38
2023-03-16T18:05:27.183Z,100513.69
2023-03-16T18:10:21.899Z,100517.13
2023-03-16T18:15:20.997Z,100657.69
2023-03-16T18:20:27.698Z,100588.38
2023-03-16T18:25:39.237Z,100541.03
2023-03-16T18:30:32.867Z,100545.88
2023-03-16T18:35:24.916Z,100652.25
2023-03-16T18:40:18.733Z,100644.56
2023-03-16T18:45:12.544Z,100663.91
2023-03-16T18:50:04.742Z,100589.75
2023-03-16T18:54:58.244Z,100540.38
2023-03-16T18:59:50.973Z,100602.06
2023-03-16T19:04:42.994Z,100456.16
2023-03-16T19:09:35.849Z,100434.22
2023-03-16T19:14:32.091Z,100557.03
2023-03-16T19:19:24.900Z,100640.91
2023-03-16T19:24:34.291Z,100644.34
2023-03-16T19:29:34.421Z,100537.28
2023-03-16T19:34:26.595Z,100558.84
2023-03-16T19:39:18.317Z,100656.59
2023-03-16T19:44:23.718Z,100647.69
2023-03-16T19:49:22.866Z,100645.88
2023-03-16T19:54:33.745Z,100550.75
2023-03-16T19:59:31.155Z,100516.28
2023-03-16T20:04:25.899Z,100524.97
2023-03-16T20:09:18.275Z,100454.28
2023-03-16T20:14:26.702Z,100609.38
2023-03-16T20:19:20.880Z,100518.31
2023-03-16T20:24:19.218Z,100594.91
2023-03-16T20:29:31.121Z,100492.19
2023-03-16T20:34:28.831Z,100519.56
2023-03-16T20:39:21.002Z,100534.47
2023-03-16T20:44:15.535Z,100478.50
2023-03-16T20:49:31.406Z,100495.84
2023-03-16T20:54:23.133Z,100370.97
2023-03-16T20:59:23.893Z,100547.41
2023-03-16T21:04:25.648Z,100497.63
2023-03-16T21:09:18.753Z,100543.19
2023-03-16T21:14:17.009Z,100456.44
2023-03-16T21:19:14.726Z,100316.66
2023-03-16T21:24:06.761Z,100514.44
2023-03-16T21:29:02.014Z,100521.69
2023-03-16T21:33:54.913Z,100470.75
2023-03-16T21:38:47.788Z,100483.63
2023-03-16T21:43:39.754Z,100478.63
2023-03-16T21:48:41.587Z,100508.22
2023-03-16T21:53:33.402Z,100503.56
2023-03-16T21:58:25.276Z,100456.88
2023-03-16T22:03:24.867Z,100497.94
2023-03-16T22:08:23.124Z,100352.28
2023-03-16T22:13:14.816Z,100344.25
2023-03-16T22:18:11.232Z,100426.50
2023-03-16T22:23:02.952Z,100358.91
2023-03-16T22:27:54.694Z,100452.06
2023-03-16T22:32:49.413Z,100453.91
2023-03-16T22:37:41.358Z,100392.31
2023-03-16T22:42:38.589Z,100454.75
2023-03-16T22:47:32.584Z,100300.06
2023-03-16T22:52:32.677Z,100197.38
2023-03-16T22:57:24.642Z,100359.16
2023-03-16T23:02:20.895Z,100404.44
2023-03-16T23:07:13.993Z,100452.94
2023-03-16T23:12:13.728Z,100305.69
2023-03-16T23:17:17.657Z,100229.28
2023-03-16T23:22:11.045Z,100364.41
2023-03-16T23:27:03.906Z,100426.13
2023-03-16T23:31:56.598Z,100415.25
2023-03-16T23:36:49.550Z,100359.16
2023-03-16T23:41:43.933Z,100414.06
2023-03-16T23:46:35.638Z,100296.41
2023-03-16T23:51:33.432Z,100293.81
2023-03-16T23:56:27.019Z,100415.06
